Time;durP1;ratioP1;P1;durP2;ratioP2;P2;SDS_P1;SDS_P2;PMS_P1;PMS_P2;Temp;Humidity;BMP_temperature;BMP_pressure;BME280_temperature;BME280_humidity;BME280_pressure;Samples;Min_cycle;Max_cycle;Signal;HPM_P1;HPM_P2
2023/12/04 00:00:15;;;;;;;11.53;5.90;;;;;;;;;;4960450;28;20459;-65
2023/12/04 00:03:08;;;;;;;10.37;5.43;;;;;;;;;;4955714;28;20430;-59
2023/12/04 00:05:56;;;;;;;13.77;5.85;;;;;;;;;;4957703;28;20150;-60
2023/12/04 00:08:50;;;;;;;12.77;5.70;;;;;;;;;;4956686;28;20066;-61
2023/12/04 00:11:43;;;;;;;14.88;6.65;;;;;;;;;;4958667;28;20062;-60
2023/12/04 00:14:37;;;;;;;11.37;6.00;;;;;;;;;;4954770;28;20136;-59
2023/12/04 00:17:24;;;;;;;13.48;5.75;;;;;;;;;;4959365;28;20889;-61
2023/12/04 00:20:19;;;;;;;9.93;5.87;;;;;;;;;;4954458;28;20086;-55
2023/12/04 00:23:06;;;;;;;14.25;5.93;;;;;;;;;;4955810;28;20043;-58
2023/12/04 00:26:00;;;;;;;10.73;5.60;;;;;;;;;;4956645;28;20182;-60
2023/12/04 00:28:47;;;;;;;10.93;5.70;;;;;;;;;;4961802;28;20098;-60
2023/12/04 00:31:40;;;;;;;11.80;6.00;;;;;;;;;;4958607;28;21853;-60
2023/12/04 00:34:27;;;;;;;9.52;5.63;;;;;;;;;;4958012;28;20058;-60
2023/12/04 00:37:22;;;;;;;11.43;5.82;;;;;;;;;;4960273;28;20073;-60
2023/12/04 00:40:09;;;;;;;11.80;5.97;;;;;;;;;;4959535;28;20057;-65
2023/12/04 00:43:03;;;;;;;11.20;6.38;;;;;;;;;;4961923;28;20055;-65
2023/12/04 00:45:50;;;;;;;13.38;6.10;;;;;;;;;;4958299;28;20106;-66
2023/12/04 00:48:45;;;;;;;10.00;5.40;;;;;;;;;;4957795;28;20069;-66
2023/12/04 00:51:37;;;;;;;11.40;5.80;;;;;;;;;;4958107;28;20506;-65
2023/12/04 00:54:30;;;;;;;11.00;5.83;;;;;;;;;;4956096;28;20051;-47
2023/12/04 00:57:18;;;;;;;13.80;5.90;;;;;;;;;;4958605;28;20058;-64
2023/12/04 01:00:12;;;;;;;10.60;5.80;;;;;;;;;;4960472;28;20447;-66
2023/12/04 01:02:59;;;;;;;11.20;6.00;;;;;;;;;;4958873;28;20106;-65
2023/12/04 01:05:53;;;;;;;12.38;6.22;;;;;;;;;;4952415;28;20067;-66
2023/12/04 01:08:40;;;;;;;14.02;6.70;;;;;;;;;;4958461;28;20054;-66
2023/12/04 01:11:41;;;;;;;10.55;5.65;;;;;;;;;;4958788;28;20998;-65
2023/12/04 01:14:28;;;;;;;10.80;5.68;;;;;;;;;;4955481;28;20063;-57
2023/12/04 01:17:23;;;;;;;12.48;6.18;;;;;;;;;;4956376;28;20062;-60
2023/12/04 01:20:10;;;;;;;14.52;6.28;;;;;;;;;;4958856;28;20089;-60
2023/12/04 01:23:03;;;;;;;9.82;5.60;;;;;;;;;;4957039;28;20058;-61
2023/12/04 01:25:51;;;;;;;12.68;6.00;;;;;;;;;;4955240;28;20069;-60
2023/12/04 01:28:45;;;;;;;11.63;5.80;;;;;;;;;;4957317;28;20058;-60
2023/12/04 01:31:32;;;;;;;10.40;5.43;;;;;;;;;;4956542;28;20047;-54
2023/12/04 01:34:25;;;;;;;11.38;5.97;;;;;;;;;;4954811;28;20622;-57
2023/12/04 01:37:20;;;;;;;9.50;5.03;;;;;;;;;;4959004;28;20059;-56
2023/12/04 01:40:07;;;;;;;10.80;5.87;;;;;;;;;;4955573;28;20047;-56
2023/12/04 01:43:00;;;;;;;11.32;6.07;;;;;;;;;;4956704;28;20051;-58
2023/12/04 01:45:47;;;;;;;7.93;4.72;;;;;;;;;;4956367;28;20062;-57
2023/12/04 01:48:42;;;;;;;13.33;6.37;;;;;;;;;;4953482;28;20055;-57
2023/12/04 01:51:30;;;;;;;12.70;6.35;;;;;;;;;;4948772;28;20051;-60
2023/12/04 01:54:23;;;;;;;12.43;5.97;;;;;;;;;;4958194;28;20533;-52
2023/12/04 01:57:11;;;;;;;10.27;5.67;;;;;;;;;;4958356;28;20078;-55
2023/12/04 02:00:11;;;;;;;10.32;5.95;;;;;;;;;;4956638;28;20054;-57
2023/12/04 02:02:52;;;;;;;9.75;5.40;;;;;;;;;;4953808;28;20055;-57
2023/12/04 02:05:46;;;;;;;10.93;5.18;;;;;;;;;;4951527;28;20158;-57
2023/12/04 02:08:33;;;;;;;12.13;5.57;;;;;;;;;;4958811;28;20110;-46
2023/12/04 02:11:28;;;;;;;11.45;5.20;;;;;;;;;;4952759;28;20158;-60
2023/12/04 02:14:25;;;;;;;10.93;5.80;;;;;;;;;;4957146;28;20067;-61
2023/12/04 02:17:19;;;;;;;11.10;5.72;;;;;;;;;;4957144;28;20055;-60
2023/12/04 02:20:07;;;;;;;17.08;6.45;;;;;;;;;;4954197;28;20086;-60
2023/12/04 02:23:03;;;;;;;17.63;7.10;;;;;;;;;;4953759;28;20058;-60
2023/12/04 02:25:53;;;;;;;9.97;5.63;;;;;;;;;;4954803;28;20166;-60
2023/12/04 02:28:47;;;;;;;14.73;5.90;;;;;;;;;;4952772;28;20463;-57
2023/12/04 02:31:35;;;;;;;11.00;5.88;;;;;;;;;;4957010;28;20066;-61
2023/12/04 02:34:30;;;;;;;9.83;5.43;;;;;;;;;;4954060;28;20063;-61
2023/12/04 02:37:17;;;;;;;;;;;;;;;;;;4955560;28;20500;-61
2023/12/04 02:40:11;;;;;;;11.60;5.57;;;;;;;;;;4956633;28;20461;-61
2023/12/04 02:42:58;;;;;;;7.82;3.95;;;;;;;;;;4954218;28;20050;-60
2023/12/04 02:45:53;;;;;;;11.73;5.67;;;;;;;;;;4952496;28;20122;-53
2023/12/04 02:48:40;;;;;;;10.85;5.88;;;;;;;;;;4955687;28;20102;-60
2023/12/04 02:51:33;;;;;;;11.77;6.03;;;;;;;;;;4954058;28;20085;-60
2023/12/04 02:54:21;;;;;;;10.63;5.30;;;;;;;;;;4955297;28;20050;-59
2023/12/04 02:57:14;;;;;;;11.33;5.47;;;;;;;;;;4955389;28;20141;-59
2023/12/04 03:00:03;;;;;;;12.93;5.83;;;;;;;;;;4955206;28;20095;-60
2023/12/04 03:02:56;;;;;;;11.90;6.10;;;;;;;;;;4956179;28;20141;-57
2023/12/04 03:05:43;;;;;;;12.13;5.10;;;;;;;;;;4954806;28;20074;-59
2023/12/04 03:08:37;;;;;;;10.07;5.30;;;;;;;;;;4956046;28;20503;-64
2023/12/04 03:11:41;;;;;;;9.33;4.97;;;;;;;;;;4951461;28;20121;-66
2023/12/04 03:14:42;;;;;;;9.70;5.30;;;;;;;;;;4954207;28;20122;-65
2023/12/04 03:17:36;;;;;;;11.43;5.67;;;;;;;;;;4956701;28;20058;-65
2023/12/04 03:20:24;;;;;;;11.00;5.43;;;;;;;;;;4953131;28;20079;-65
2023/12/04 03:23:17;;;;;;;9.33;5.17;;;;;;;;;;4955221;28;20062;-58
2023/12/04 03:26:12;;;;;;;11.00;5.57;;;;;;;;;;4952591;28;20063;-48
2023/12/04 03:29:05;;;;;;;12.17;5.70;;;;;;;;;;4956364;28;21819;-48
2023/12/04 03:31:59;;;;;;;10.47;5.83;;;;;;;;;;4953290;28;20055;-48
2023/12/04 03:34:53;;;;;;;10.27;5.30;;;;;;;;;;4952479;28;20153;-51
2023/12/04 03:37:41;;;;;;;12.00;5.80;;;;;;;;;;4953089;28;20066;-48
2023/12/04 03:40:35;;;;;;;11.87;5.63;;;;;;;;;;4955381;28;20054;-46
2023/12/04 03:43:22;;;;;;;11.97;5.23;;;;;;;;;;4959722;28;20059;-60
2023/12/04 03:46:15;;;;;;;12.40;6.40;;;;;;;;;;4956675;28;20122;-60
2023/12/04 03:49:03;;;;;;;11.27;4.97;;;;;;;;;;4953071;28;20082;-60
2023/12/04 03:51:57;;;;;;;9.53;5.47;;;;;;;;;;4952208;28;20054;-59
2023/12/04 03:54:45;;;;;;;15.27;6.23;;;;;;;;;;4952779;28;20062;-59
2023/12/04 03:57:38;;;;;;;11.30;5.80;;;;;;;;;;4947510;28;20150;-59
2023/12/04 04:00:26;;;;;;;9.87;5.07;;;;;;;;;;4952513;28;20114;-65
2023/12/04 04:03:19;;;;;;;9.13;5.67;;;;;;;;;;4952658;28;20553;-55
2023/12/04 04:06:07;;;;;;;10.07;5.00;;;;;;;;;;4954058;28;20403;-56
2023/12/04 04:09:00;;;;;;;11.63;5.73;;;;;;;;;;4955824;28;20137;-57
2023/12/04 04:11:54;;;;;;;9.43;5.60;;;;;;;;;;4953254;28;20058;-57
2023/12/04 04:14:55;;;;;;;9.37;5.23;;;;;;;;;;4953108;28;20059;-57
2023/12/04 04:17:42;;;;;;;11.20;5.63;;;;;;;;;;4954291;28;20079;-66
2023/12/04 04:20:35;;;;;;;11.13;5.90;;;;;;;;;;4954224;28;20162;-48
2023/12/04 04:23:23;;;;;;;10.50;5.17;;;;;;;;;;4956204;28;20050;-50
2023/12/04 04:26:16;;;;;;;8.83;4.83;;;;;;;;;;4957092;28;20055;-47
2023/12/04 04:29:04;;;;;;;8.90;5.20;;;;;;;;;;4953324;28;20063;-49
2023/12/04 04:31:57;;;;;;;9.60;5.77;;;;;;;;;;4958141;28;20069;-47
2023/12/04 04:34:45;;;;;;;12.33;5.70;;;;;;;;;;4958906;28;20162;-65
2023/12/04 04:37:38;;;;;;;10.67;4.77;;;;;;;;;;4955986;28;20063;-60
2023/12/04 04:40:26;;;;;;;14.63;6.10;;;;;;;;;;4959958;28;20518;-56
2023/12/04 04:43:20;;;;;;;9.33;5.43;;;;;;;;;;4959185;28;20063;-55
2023/12/04 04:46:07;;;;;;;10.93;5.77;;;;;;;;;;4952987;28;20091;-56
2023/12/04 04:49:01;;;;;;;11.43;5.03;;;;;;;;;;4958442;28;20059;-57
2023/12/04 04:51:48;;;;;;;11.70;5.80;;;;;;;;;;4957493;28;20498;-58
2023/12/04 04:54:42;;;;;;;12.57;5.23;;;;;;;;;;4955333;28;20739;-55
2023/12/04 04:57:29;;;;;;;12.50;5.90;;;;;;;;;;4952425;28;20426;-57
2023/12/04 05:00:22;;;;;;;13.67;5.37;;;;;;;;;;4955673;28;20051;-56
2023/12/04 05:03:10;;;;;;;10.73;5.33;;;;;;;;;;4955311;28;20519;-56
2023/12/04 05:06:04;;;;;;;9.97;5.03;;;;;;;;;;4959889;28;20061;-54
2023/12/04 05:08:52;;;;;;;8.87;5.00;;;;;;;;;;4960334;28;20097;-57
2023/12/04 05:11:57;;;;;;;9.60;5.33;;;;;;;;;;4958105;28;20306;-65
2023/12/04 05:14:51;;;;;;;11.10;5.50;;;;;;;;;;4955717;28;20059;-46
2023/12/04 05:17:46;;;;;;;10.03;5.80;;;;;;;;;;4959978;28;20062;-46
2023/12/04 05:20:33;;;;;;;10.83;5.87;;;;;;;;;;4955642;28;20061;-46
2023/12/04 05:23:26;;;;;;;10.83;5.27;;;;;;;;;;4954395;28;20111;-47
2023/12/04 05:26:14;;;;;;;9.90;4.97;;;;;;;;;;4951437;28;20063;-50
2023/12/04 05:29:07;;;;;;;14.52;5.38;;;;;;;;;;4944742;28;20070;-50
2023/12/04 05:31:55;;;;;;;11.27;5.70;;;;;;;;;;4959970;28;20141;-60
2023/12/04 05:34:49;;;;;;;10.03;5.10;;;;;;;;;;4955684;28;20059;-57
2023/12/04 05:37:36;;;;;;;9.33;5.20;;;;;;;;;;4956619;28;20057;-55
2023/12/04 05:40:29;;;;;;;11.67;5.83;;;;;;;;;;4956938;28;20055;-54
2023/12/04 05:43:18;;;;;;;12.40;5.57;;;;;;;;;;4955133;28;20082;-59
2023/12/04 05:46:10;;;;;;;10.87;5.90;;;;;;;;;;4954689;28;20133;-55
2023/12/04 05:48:58;;;;;;;11.70;5.70;;;;;;;;;;4957430;28;20602;-59
2023/12/04 05:51:52;;;;;;;9.60;4.87;;;;;;;;;;4952745;28;20085;-60
2023/12/04 05:54:39;;;;;;;10.27;5.53;;;;;;;;;;4953215;28;20051;-60
2023/12/04 05:57:33;;;;;;;11.23;5.47;;;;;;;;;;4951395;28;20063;-60
2023/12/04 06:00:21;;;;;;;10.53;5.97;;;;;;;;;;4951678;28;20152;-60
2023/12/04 06:03:13;;;;;;;10.50;5.20;;;;;;;;;;4951834;28;20047;-59
2023/12/04 06:06:08;;;;;;;8.87;4.80;;;;;;;;;;4957261;28;20061;-59
2023/12/04 06:09:02;;;;;;;10.23;5.27;;;;;;;;;;4955697;28;20054;-58
2023/12/04 06:11:55;;;;;;;8.37;5.00;;;;;;;;;;4956290;28;21790;-60
2023/12/04 06:14:55;;;;;;;11.17;5.13;;;;;;;;;;4955845;28;20106;-60
2023/12/04 06:17:42;;;;;;;9.73;5.73;;;;;;;;;;4954878;28;20059;-60
2023/12/04 06:20:37;;;;;;;9.93;5.20;;;;;;;;;;4955428;28;21034;-60
2023/12/04 06:23:24;;;;;;;9.03;4.83;;;;;;;;;;4956207;28;20708;-60
2023/12/04 06:26:18;;;;;;;10.40;5.93;;;;;;;;;;4955761;28;20150;-49
2023/12/04 06:29:12;;;;;;;9.50;5.50;;;;;;;;;;4957933;28;20055;-57
2023/12/04 06:31:59;;;;;;;12.03;6.27;;;;;;;;;;4958554;28;20067;-56
2023/12/04 06:34:55;;;;;;;11.77;5.83;;;;;;;;;;4961846;28;20053;-57
2023/12/04 06:37:46;;;;;;;10.83;5.80;;;;;;;;;;4958467;28;20046;-54
2023/12/04 06:40:40;;;;;;;9.63;5.40;;;;;;;;;;4956171;28;20061;-57
2023/12/04 06:43:27;;;;;;;12.73;5.30;;;;;;;;;;4958958;28;20050;-59
2023/12/04 06:46:21;;;;;;;10.07;5.10;;;;;;;;;;4957114;28;20082;-49
2023/12/04 06:49:09;;;;;;;10.60;5.43;;;;;;;;;;4956091;28;20141;-60
2023/12/04 06:52:04;;;;;;;14.80;5.50;;;;;;;;;;4955270;28;20120;-60
2023/12/04 06:54:51;;;;;;;10.27;5.27;;;;;;;;;;4953433;28;20474;-60
2023/12/04 06:57:45;;;;;;;10.50;5.53;;;;;;;;;;4953020;28;20054;-60
2023/12/04 07:00:32;;;;;;;11.33;5.80;;;;;;;;;;4957731;28;20135;-59
2023/12/04 07:03:25;;;;;;;9.97;5.47;;;;;;;;;;4955961;28;20692;-56
2023/12/04 07:06:14;;;;;;;11.73;6.17;;;;;;;;;;4952242;28;20055;-56
2023/12/04 07:09:10;;;;;;;10.30;5.47;;;;;;;;;;4958813;28;20047;-59
2023/12/04 07:12:10;;;;;;;12.70;5.85;;;;;;;;;;4955222;28;20063;-57
2023/12/04 07:15:04;;;;;;;12.63;5.70;;;;;;;;;;4957693;28;20051;-57
2023/12/04 07:17:51;;;;;;;13.40;5.83;;;;;;;;;;4957107;28;20047;-54
2023/12/04 07:20:45;;;;;;;10.57;5.90;;;;;;;;;;4955169;28;20050;-46
2023/12/04 07:23:32;;;;;;;10.53;5.23;;;;;;;;;;4956481;28;20067;-61
2023/12/04 07:26:26;;;;;;;13.27;5.63;;;;;;;;;;4956144;28;20122;-60
2023/12/04 07:29:13;;;;;;;11.10;5.60;;;;;;;;;;4961033;28;20193;-60
2023/12/04 07:32:07;;;;;;;12.13;5.90;;;;;;;;;;4955668;28;20066;-60
2023/12/04 07:34:54;;;;;;;11.83;6.07;;;;;;;;;;4954823;28;20110;-60
2023/12/04 07:37:54;;;;;;;17.77;6.13;;;;;;;;;;4958484;28;21566;-60
2023/12/04 07:40:41;;;;;;;10.03;5.77;;;;;;;;;;4955183;28;20542;-56
2023/12/04 07:43:36;;;;;;;9.52;5.20;;;;;;;;;;4954273;28;20051;-60
2023/12/04 07:46:23;;;;;;;11.07;5.70;;;;;;;;;;4952777;28;20062;-62
2023/12/04 07:49:16;;;;;;;12.10;5.40;;;;;;;;;;4957088;28;20047;-60
2023/12/04 07:52:04;;;;;;;12.20;5.60;;;;;;;;;;4956403;28;20070;-60
2023/12/04 07:54:58;;;;;;;10.93;5.40;;;;;;;;;;4954727;28;20055;-60
2023/12/04 07:57:47;;;;;;;11.37;5.90;;;;;;;;;;4958381;28;20055;-57
2023/12/04 08:00:40;;;;;;;9.07;5.47;;;;;;;;;;4960894;28;20869;-59
2023/12/04 08:03:28;;;;;;;8.73;4.43;;;;;;;;;;4960597;28;20137;-60
2023/12/04 08:06:22;;;;;;;9.18;4.85;;;;;;;;;;4959852;28;20050;-60
2023/12/04 08:09:10;;;;;;;10.93;5.13;;;;;;;;;;4958083;28;20054;-60
2023/12/04 08:12:09;;;;;;;9.20;5.28;;;;;;;;;;4958773;28;20422;-60
2023/12/04 08:14:57;;;;;;;10.07;5.73;;;;;;;;;;4960728;28;20083;-60
2023/12/04 08:17:50;;;;;;;8.85;4.57;;;;;;;;;;4957885;28;20150;-60
2023/12/04 08:20:44;;;;;;;9.82;5.18;;;;;;;;;;4956475;28;20055;-61
2023/12/04 08:23:32;;;;;;;10.18;5.32;;;;;;;;;;4960483;28;20051;-59
2023/12/04 08:26:26;;;;;;;10.07;5.60;;;;;;;;;;4959448;28;20059;-57
2023/12/04 08:29:13;;;;;;;10.52;5.00;;;;;;;;;;4962518;28;20121;-57
2023/12/04 08:32:07;;;;;;;10.30;4.80;;;;;;;;;;4959337;28;20063;-57
2023/12/04 08:34:54;;;;;;;10.17;5.60;;;;;;;;;;4957970;28;20055;-59
2023/12/04 08:37:48;;;;;;;9.55;4.80;;;;;;;;;;4958169;28;20051;-64
2023/12/04 08:40:43;;;;;;;10.73;5.13;;;;;;;;;;4955214;28;20058;-64
2023/12/04 08:43:29;;;;;;;9.73;5.07;;;;;;;;;;4960032;28;20054;-64
2023/12/04 08:46:23;;;;;;;11.88;5.25;;;;;;;;;;4957393;28;20778;-65
2023/12/04 08:49:10;;;;;;;9.02;5.00;;;;;;;;;;4959183;28;20054;-64
2023/12/04 08:52:14;;;;;;;9.82;5.18;;;;;;;;;;4958197;28;20222;-56
2023/12/04 08:55:08;;;;;;;11.02;5.15;;;;;;;;;;4957137;28;20118;-56
2023/12/04 08:58:02;;;;;;;11.85;5.10;;;;;;;;;;4955460;28;20058;-58
2023/12/04 09:00:49;;;;;;;11.68;5.45;;;;;;;;;;4957962;28;20054;-58
2023/12/04 09:03:43;;;;;;;9.93;5.30;;;;;;;;;;4958751;28;20058;-56
2023/12/04 09:06:30;;;;;;;8.35;4.80;;;;;;;;;;4957602;28;20059;-56
2023/12/04 09:09:26;;;;;;;9.52;5.07;;;;;;;;;;4958995;28;20883;-56
2023/12/04 09:12:21;;;;;;;9.07;5.10;;;;;;;;;;4958230;28;20114;-54
2023/12/04 09:15:15;;;;;;;8.73;5.38;;;;;;;;;;4957904;28;20492;-56
2023/12/04 09:18:02;;;;;;;12.95;5.80;;;;;;;;;;4955765;28;20116;-57
2023/12/04 09:20:56;;;;;;;11.02;5.85;;;;;;;;;;4958193;28;20113;-57
2023/12/04 09:23:49;;;;;;;10.40;5.43;;;;;;;;;;4956676;28;20061;-58
2023/12/04 09:26:37;;;;;;;10.23;5.50;;;;;;;;;;4961039;28;20065;-58
2023/12/04 09:29:24;;;;;;;9.60;5.28;;;;;;;;;;4960273;28;20054;-60
2023/12/04 09:32:18;;;;;;;8.55;4.72;;;;;;;;;;4961514;28;20573;-58
2023/12/04 09:35:05;;;;;;;12.88;5.30;;;;;;;;;;4958105;28;20133;-54
2023/12/04 09:37:59;;;;;;;10.80;5.50;;;;;;;;;;4957853;28;20059;-57
2023/12/04 09:40:46;;;;;;;11.57;4.78;;;;;;;;;;4959418;28;20059;-57
2023/12/04 09:43:47;;;;;;;8.35;4.93;;;;;;;;;;4957857;28;20058;-57
2023/12/04 09:46:35;;;;;;;8.82;4.90;;;;;;;;;;4956729;28;20055;-55
2023/12/04 09:49:29;;;;;;;8.65;4.15;;;;;;;;;;4957530;28;20047;-59
2023/12/04 09:52:17;;;;;;;10.13;4.72;;;;;;;;;;4954475;28;20049;-64
2023/12/04 09:55:11;;;;;;;8.98;4.40;;;;;;;;;;4959628;28;20494;-64
2023/12/04 09:57:58;;;;;;;8.32;4.60;;;;;;;;;;4956091;28;20129;-65
2023/12/04 10:00:54;;;;;;;6.70;4.45;;;;;;;;;;4954039;28;20059;-64
2023/12/04 10:03:57;;;;;;;6.00;4.28;;;;;;;;;;4957615;28;20138;-65
2023/12/04 10:06:55;;;;;;;6.32;4.07;;;;;;;;;;4958038;28;20134;-58
2023/12/04 10:09:42;;;;;;;8.32;4.32;;;;;;;;;;4955718;28;20110;-60
2023/12/04 10:12:43;;;;;;;6.43;4.25;;;;;;;;;;4945825;28;20422;-60
2023/12/04 10:15:48;;;;;;;6.32;3.92;;;;;;;;;;4941234;28;20154;-61
2023/12/04 10:18:41;;;;;;;6.28;3.83;;;;;;;;;;4939846;28;20051;-60
2023/12/04 10:21:15;;;;;;;6.88;4.05;;;;;;;;;;4939539;28;20424;-62
2023/12/04 10:24:02;;;;;;;5.85;3.70;;;;;;;;;;4937490;28;20047;-60
2023/12/04 10:26:56;;;;;;;6.72;3.83;;;;;;;;;;4936518;28;20063;-65
2023/12/04 10:29:52;;;;;;;7.00;3.78;;;;;;;;;;4941524;28;20047;-58
2023/12/04 10:32:39;;;;;;;6.57;4.00;;;;;;;;;;4939165;28;20062;-58
2023/12/04 10:35:38;;;;;;;7.03;4.22;;;;;;;;;;4938772;28;20078;-57
2023/12/04 10:38:26;;;;;;;5.40;3.88;;;;;;;;;;4942717;28;20062;-57
2023/12/04 10:41:18;;;;;;;6.57;3.85;;;;;;;;;;4941916;28;20507;-57
2023/12/04 10:44:06;;;;;;;8.10;4.38;;;;;;;;;;4939965;28;20059;-64
2023/12/04 10:47:03;;;;;;;7.18;4.10;;;;;;;;;;4937714;28;20047;-59
2023/12/04 10:49:51;;;;;;;8.65;4.25;;;;;;;;;;4940101;28;20058;-59
2023/12/04 10:52:53;;;;;;;7.68;4.45;;;;;;;;;;4939120;28;20077;-60
2023/12/04 10:55:39;;;;;;;7.15;4.05;;;;;;;;;;4937370;28;20502;-59
2023/12/04 10:58:34;;;;;;;6.78;4.18;;;;;;;;;;4936672;28;20511;-59
2023/12/04 11:01:23;;;;;;;7.60;4.40;;;;;;;;;;4936071;28;20060;-49
2023/12/04 11:04:17;;;;;;;10.88;4.05;;;;;;;;;;4939849;28;20692;-56
2023/12/04 11:07:05;;;;;;;7.03;4.05;;;;;;;;;;4938198;28;20059;-58
2023/12/04 11:10:20;;;;;;;7.68;4.38;;;;;;;;;;4938996;28;20061;-56
2023/12/04 11:13:19;;;;;;;8.05;3.97;;;;;;;;;;4951010;28;20117;-56
2023/12/04 11:16:15;;;;;;;7.57;3.85;;;;;;;;;;4957304;28;20086;-56
2023/12/04 11:19:16;;;;;;;11.20;4.13;;;;;;;;;;4957287;28;20055;-60
2023/12/04 11:22:09;;;;;;;17.00;4.35;;;;;;;;;;4958332;28;20213;-62
2023/12/04 11:25:05;;;;;;;8.10;3.70;;;;;;;;;;4955168;28;20075;-65
2023/12/04 11:27:53;;;;;;;7.30;3.95;;;;;;;;;;4956888;28;20046;-64
2023/12/04 11:30:47;;;;;;;6.82;3.97;;;;;;;;;;4955279;28;20510;-65
2023/12/04 11:33:35;;;;;;;6.15;3.22;;;;;;;;;;4957384;28;20990;-64
2023/12/04 11:36:29;;;;;;;10.32;3.80;;;;;;;;;;4954086;28;20059;-64
2023/12/04 11:39:23;;;;;;;6.97;3.67;;;;;;;;;;4954429;28;20718;-60
2023/12/04 11:42:12;;;;;;;7.20;3.80;;;;;;;;;;4954974;28;20491;-59
2023/12/04 11:45:04;;;;;;;7.13;3.08;;;;;;;;;;4956440;28;20057;-59
2023/12/04 11:47:58;;;;;;;5.75;3.58;;;;;;;;;;4957951;28;20059;-59
2023/12/04 11:50:52;;;;;;;6.75;3.58;;;;;;;;;;4957127;28;20063;-59
2023/12/04 11:53:40;;;;;;;6.07;3.22;;;;;;;;;;4957463;28;20054;-60
2023/12/04 11:56:34;;;;;;;5.78;3.25;;;;;;;;;;4956187;28;20059;-60
2023/12/04 11:59:21;;;;;;;5.15;3.20;;;;;;;;;;4953707;28;20065;-49
2023/12/04 12:02:16;;;;;;;5.22;3.28;;;;;;;;;;4955104;28;20122;-49
2023/12/04 12:05:23;;;;;;;6.45;3.15;;;;;;;;;;4954209;28;20050;-46
2023/12/04 12:08:17;;;;;;;5.63;3.22;;;;;;;;;;4955029;28;20061;-50
2023/12/04 12:11:11;;;;;;;10.85;3.05;;;;;;;;;;4949622;28;20514;-50
2023/12/04 12:14:06;;;;;;;4.15;2.78;;;;;;;;;;4952404;28;20055;-60
2023/12/04 12:17:01;;;;;;;3.60;2.40;;;;;;;;;;4954743;28;21510;-65
2023/12/04 12:19:48;;;;;;;4.45;2.90;;;;;;;;;;4953544;28;20058;-51
2023/12/04 12:22:43;;;;;;;4.45;2.63;;;;;;;;;;4954214;28;20055;-47
2023/12/04 12:25:29;;;;;;;4.88;2.78;;;;;;;;;;4955236;28;20465;-54
2023/12/04 12:28:23;;;;;;;4.07;2.78;;;;;;;;;;4955628;28;21381;-54
2023/12/04 12:31:10;;;;;;;4.97;2.83;;;;;;;;;;4954961;28;20055;-50
2023/12/04 12:34:04;;;;;;;5.93;2.60;;;;;;;;;;4957842;28;20062;-59
2023/12/04 12:36:52;;;;;;;4.85;2.80;;;;;;;;;;4955823;28;20062;-61
2023/12/04 12:39:46;;;;;;;3.88;2.70;;;;;;;;;;4952943;28;20534;-61
2023/12/04 12:42:33;;;;;;;5.93;2.88;;;;;;;;;;4952761;28;20824;-62
2023/12/04 12:45:38;;;;;;;4.90;2.60;;;;;;;;;;4959280;28;20059;-60
2023/12/04 12:48:27;;;;;;;4.18;2.60;;;;;;;;;;4957420;28;20573;-61
2023/12/04 12:51:21;;;;;;;5.13;2.92;;;;;;;;;;4957620;28;20050;-60
2023/12/04 12:54:08;;;;;;;4.10;2.97;;;;;;;;;;4962027;28;20093;-58
2023/12/04 12:57:02;;;;;;;5.78;2.38;;;;;;;;;;4958288;28;20051;-57
2023/12/04 12:59:49;;;;;;;7.30;2.92;;;;;;;;;;4961769;28;20051;-59
2023/12/04 13:02:45;;;;;;;3.53;2.45;;;;;;;;;;4960349;28;20062;-55
2023/12/04 13:05:32;;;;;;;4.43;2.92;;;;;;;;;;4955126;28;20055;-57
2023/12/04 13:08:26;;;;;;;4.57;2.88;;;;;;;;;;4960052;28;20050;-57
2023/12/04 13:11:13;;;;;;;3.83;2.83;;;;;;;;;;4960403;28;20066;-61
2023/12/04 13:14:13;;;;;;;3.22;2.47;;;;;;;;;;4954226;28;20142;-60
2023/12/04 13:17:01;;;;;;;5.75;2.78;;;;;;;;;;4953971;28;20057;-60
2023/12/04 13:19:55;;;;;;;4.38;2.80;;;;;;;;;;4958602;28;20094;-60
2023/12/04 13:22:42;;;;;;;5.20;2.80;;;;;;;;;;4956470;28;20062;-60
2023/12/04 13:25:36;;;;;;;4.05;2.92;;;;;;;;;;4959061;28;20158;-60
2023/12/04 13:28:23;;;;;;;4.82;3.17;;;;;;;;;;4958857;28;20058;-48
2023/12/04 13:31:17;;;;;;;4.20;2.72;;;;;;;;;;4956246;28;20149;-57
2023/12/04 13:34:06;;;;;;;4.18;2.50;;;;;;;;;;4956235;28;20556;-58
2023/12/04 13:36:58;;;;;;;4.57;2.70;;;;;;;;;;4956314;28;20055;-60
2023/12/04 13:39:48;;;;;;;6.50;3.03;;;;;;;;;;4956026;28;20058;-56
2023/12/04 13:45:28;;;;;;;7.07;3.60;;;;;;;;;;4957877;28;20059;-58
2023/12/04 13:48:21;;;;;;;5.68;3.25;;;;;;;;;;4959686;28;20055;-61
2023/12/04 13:51:10;;;;;;;4.60;2.67;;;;;;;;;;4960592;28;20062;-58
2023/12/04 13:54:16;;;;;;;9.93;4.10;;;;;;;;;;4959813;28;20079;-59
2023/12/04 13:56:54;;;;;;;6.07;3.42;;;;;;;;;;4953070;28;20058;-59
2023/12/04 13:59:48;;;;;;;5.20;3.33;;;;;;;;;;4955686;28;21451;-59
2023/12/04 14:02:37;;;;;;;7.25;3.95;;;;;;;;;;4958141;28;20047;-56
2023/12/04 14:05:29;;;;;;;6.07;3.42;;;;;;;;;;4955845;28;20055;-47
2023/12/04 14:08:16;;;;;;;6.78;3.90;;;;;;;;;;4954855;28;20055;-60
2023/12/04 14:11:11;;;;;;;7.72;4.22;;;;;;;;;;4955718;28;20120;-60
2023/12/04 14:14:04;;;;;;;7.30;4.25;;;;;;;;;;4942584;28;20059;-60
2023/12/04 14:16:59;;;;;;;8.68;4.60;;;;;;;;;;4936798;28;20059;-60
2023/12/04 14:19:53;;;;;;;9.05;4.30;;;;;;;;;;4941094;28;20114;-59
2023/12/04 14:22:46;;;;;;;11.52;4.80;;;;;;;;;;4937896;28;20978;-62
2023/12/04 14:25:41;;;;;;;14.00;4.43;;;;;;;;;;4939051;28;20643;-49
2023/12/04 14:28:28;;;;;;;10.55;4.28;;;;;;;;;;4939697;28;20059;-61
2023/12/04 14:31:22;;;;;;;8.57;4.30;;;;;;;;;;4938673;28;20155;-61
2023/12/04 14:34:09;;;;;;;9.25;4.50;;;;;;;;;;4934825;28;20181;-61
2023/12/04 14:37:04;;;;;;;11.18;4.85;;;;;;;;;;4937198;28;20060;-61
2023/12/04 14:39:50;;;;;;;13.63;5.97;;;;;;;;;;4936341;28;20063;-61
2023/12/04 14:42:44;;;;;;;11.50;5.53;;;;;;;;;;4935882;28;20047;-60
2023/12/04 14:45:31;;;;;;;11.07;5.00;;;;;;;;;;4941329;28;20063;-55
2023/12/04 14:48:25;;;;;;;11.55;6.10;;;;;;;;;;4937817;28;20314;-56
2023/12/04 14:51:13;;;;;;;11.25;5.20;;;;;;;;;;4939139;28;20062;-58
2023/12/04 14:54:14;;;;;;;11.80;5.80;;;;;;;;;;4938663;28;20060;-58
2023/12/04 15:01:00;;;;;;;9.05;4.88;;;;;;;;;;4937019;28;20047;-60
2023/12/04 21:32:13;;;;;;;35.67;13.13;;;;;;;;;;4949117;28;21908;-48
2023/12/04 21:34:48;;;;;;;31.80;11.38;;;;;;;;;;4950717;28;20059;-48
2023/12/04 21:37:35;;;;;;;33.47;11.73;;;;;;;;;;4955360;28;20163;-46
2023/12/04 21:40:29;;;;;;;34.33;11.37;;;;;;;;;;4952242;28;20061;-45
2023/12/04 21:43:23;;;;;;;35.73;12.83;;;;;;;;;;4949054;28;20067;-46
2023/12/04 21:46:10;;;;;;;32.03;12.33;;;;;;;;;;4951403;28;20062;-63
2023/12/04 21:49:04;;;;;;;32.63;12.83;;;;;;;;;;4949207;28;20113;-55
2023/12/04 21:51:51;;;;;;;33.30;12.80;;;;;;;;;;4952302;28;20055;-56
2023/12/04 21:54:45;;;;;;;37.73;12.97;;;;;;;;;;4951595;28;20059;-58
2023/12/04 21:57:32;;;;;;;33.13;12.90;;;;;;;;;;4949420;28;20562;-58
2023/12/04 22:00:28;;;;;;;32.83;12.83;;;;;;;;;;4948284;28;20880;-61
2023/12/04 22:03:20;;;;;;;32.13;12.70;;;;;;;;;;4951983;28;20514;-56
2023/12/04 22:06:08;;;;;;;33.10;10.17;;;;;;;;;;4951790;28;20057;-58
2023/12/04 22:09:03;;;;;;;38.00;12.83;;;;;;;;;;4948181;28;20055;-59
2023/12/04 22:11:52;;;;;;;87.30;15.13;;;;;;;;;;4950917;28;20546;-59
2023/12/04 22:14:46;;;;;;;61.67;14.70;;;;;;;;;;4952560;28;20173;-59
2023/12/04 22:17:41;;;;;;;74.37;15.27;;;;;;;;;;4952512;28;20073;-59
2023/12/04 22:20:27;;;;;;;61.27;14.77;;;;;;;;;;4947942;28;20062;-61
2023/12/04 22:23:21;;;;;;;63.37;14.13;;;;;;;;;;4947430;28;20070;-57
2023/12/04 22:26:08;;;;;;;147.23;16.50;;;;;;;;;;4952316;28;20062;-56
2023/12/04 22:29:02;;;;;;;141.10;16.17;;;;;;;;;;4957400;28;20059;-56
2023/12/04 22:32:02;;;;;;;104.23;15.57;;;;;;;;;;4954536;28;20575;-58
2023/12/04 22:34:50;;;;;;;84.80;16.50;;;;;;;;;;4956418;28;20055;-58
2023/12/04 22:37:44;;;;;;;68.30;16.87;;;;;;;;;;4959271;28;20137;-58
2023/12/04 22:40:31;;;;;;;82.77;16.33;;;;;;;;;;4958367;28;20423;-55
2023/12/04 22:43:25;;;;;;;69.07;16.47;;;;;;;;;;4956122;28;20054;-60
2023/12/04 22:46:12;;;;;;;52.73;15.83;;;;;;;;;;4956405;28;20054;-60
2023/12/04 22:49:06;;;;;;;58.50;16.30;;;;;;;;;;4956340;28;20055;-59
2023/12/04 22:51:53;;;;;;;56.93;16.77;;;;;;;;;;4953878;28;20055;-59
2023/12/04 22:54:47;;;;;;;50.20;16.40;;;;;;;;;;4952881;28;20451;-63
2023/12/04 22:57:34;;;;;;;45.93;15.40;;;;;;;;;;4951544;28;20145;-65
2023/12/04 23:00:28;;;;;;;44.67;16.63;;;;;;;;;;4954742;28;20090;-47
2023/12/04 23:03:15;;;;;;;53.53;16.27;;;;;;;;;;4954234;28;20133;-48
2023/12/04 23:06:09;;;;;;;48.97;15.23;;;;;;;;;;4952020;28;20109;-48
2023/12/04 23:08:56;;;;;;;47.47;14.97;;;;;;;;;;4952972;28;20058;-47
2023/12/04 23:11:50;;;;;;;45.57;16.17;;;;;;;;;;4954018;28;20401;-50
2023/12/04 23:14:37;;;;;;;50.40;16.57;;;;;;;;;;4953736;28;20058;-49
2023/12/04 23:17:31;;;;;;;47.30;16.37;;;;;;;;;;4950538;28;20154;-47
2023/12/04 23:20:18;;;;;;;49.73;16.43;;;;;;;;;;4952872;28;20904;-58
2023/12/04 23:23:12;;;;;;;51.93;15.87;;;;;;;;;;4953691;28;20047;-58
2023/12/04 23:26:02;;;;;;;53.27;17.23;;;;;;;;;;4954606;28;20522;-58
2023/12/04 23:28:53;;;;;;;57.87;18.63;;;;;;;;;;4954929;28;20594;-57
2023/12/04 23:31:54;;;;;;;61.70;17.67;;;;;;;;;;4974793;28;20054;-58